Holdridge, Nebraska
Current Conditions -  °F | °C
As of 8:15 PM on Saturday 20 Dec 2014 (Local Time) from KHDE Reporting Station
Clear Clear  
Wind Chill: 29°   Ceiling: Unl
Heat Index: 35°   Visibility: 10mi
Dew Point: 31°   Wind: 7mph
Humidity: 85%   Direction: 190°S
Pressure: 29.95"   Gusts: NA
Location:  40.4958°N, 99.3198°W
Report Text: KHDE 210215Z AUTO 19006KT 10SM CLR 01/M01 A2995 RMK AO2 T00141008
Loading
Personal Weather Stations






























Interactive Weather Map New forecast layout! Learn more

10-Day Weather Forecast

Advertisements
Track Severe Weather on mobile